sensor_id;sensor_type;location;lat;lon;timestamp;P1;P2;P0
67892;PMS7003;54688;52.376;16.744;2023-11-21T00:02:54;55;40;
67892;PMS7003;54688;52.376;16.744;2023-11-21T00:05:56;50;40;
67892;PMS7003;54688;52.376;16.744;2023-11-21T00:08:58;49;39;
67892;PMS7003;54688;52.376;16.744;2023-11-21T00:12:00;45;38;
67892;PMS7003;54688;52.376;16.744;2023-11-21T00:15:03;49;38;
67892;PMS7003;54688;52.376;16.744;2023-11-21T00:18:06;49;41;
67892;PMS7003;54688;52.376;16.744;2023-11-21T00:21:08;52;36;
67892;PMS7003;54688;52.376;16.744;2023-11-21T00:24:10;48;39;
67892;PMS7003;54688;52.376;16.744;2023-11-21T00:27:13;50;39;
67892;PMS7003;54688;52.376;16.744;2023-11-21T00:30:14;46;36;
67892;PMS7003;54688;52.376;16.744;2023-11-21T00:33:16;46;34;
67892;PMS7003;54688;52.376;16.744;2023-11-21T00:36:18;48;37;
67892;PMS7003;54688;52.376;16.744;2023-11-21T00:39:20;40;35;
67892;PMS7003;54688;52.376;16.744;2023-11-21T00:42:22;36;31;
67892;PMS7003;54688;52.376;16.744;2023-11-21T00:45:25;45;33;
67892;PMS7003;54688;52.376;16.744;2023-11-21T00:48:27;44;36;
67892;PMS7003;54688;52.376;16.744;2023-11-21T00:51:29;48;38;
67892;PMS7003;54688;52.376;16.744;2023-11-21T00:57:31;47;37;
67892;PMS7003;54688;52.376;16.744;2023-11-21T01:00:34;56;40;
67892;PMS7003;54688;52.376;16.744;2023-11-21T01:03:35;43;36;
67892;PMS7003;54688;52.376;16.744;2023-11-21T01:06:38;50;39;
67892;PMS7003;54688;52.376;16.744;2023-11-21T01:09:40;49;37;
67892;PMS7003;54688;52.376;16.744;2023-11-21T01:12:43;43;33;
67892;PMS7003;54688;52.376;16.744;2023-11-21T01:15:45;49;39;
67892;PMS7003;54688;52.376;16.744;2023-11-21T01:18:48;49;38;
67892;PMS7003;54688;52.376;16.744;2023-11-21T01:21:50;52;40;
67892;PMS7003;54688;52.376;16.744;2023-11-21T01:24:53;47;34;
67892;PMS7003;54688;52.376;16.744;2023-11-21T01:27:55;48;37;
67892;PMS7003;54688;52.376;16.744;2023-11-21T01:30:58;48;37;
67892;PMS7003;54688;52.376;16.744;2023-11-21T01:34:00;50;41;
67892;PMS7003;54688;52.376;16.744;2023-11-21T01:37:02;52;40;
67892;PMS7003;54688;52.376;16.744;2023-11-21T01:40:05;48;36;
67892;PMS7003;54688;52.376;16.744;2023-11-21T01:43:07;52;39;
67892;PMS7003;54688;52.376;16.744;2023-11-21T01:46:10;53;39;
67892;PMS7003;54688;52.376;16.744;2023-11-21T01:49:12;47;38;
67892;PMS7003;54688;52.376;16.744;2023-11-21T01:52:15;49;39;
67892;PMS7003;54688;52.376;16.744;2023-11-21T01:55:18;48;38;
67892;PMS7003;54688;52.376;16.744;2023-11-21T01:58:20;49;37;
67892;PMS7003;54688;52.376;16.744;2023-11-21T02:01:22;51;39;
67892;PMS7003;54688;52.376;16.744;2023-11-21T02:04:25;46;39;
67892;PMS7003;54688;52.376;16.744;2023-11-21T02:07:27;49;38;
67892;PMS7003;54688;52.376;16.744;2023-11-21T02:10:29;52;41;
67892;PMS7003;54688;52.376;16.744;2023-11-21T02:13:31;50;36;
67892;PMS7003;54688;52.376;16.744;2023-11-21T02:16:33;54;40;
67892;PMS7003;54688;52.376;16.744;2023-11-21T02:19:35;51;39;
67892;PMS7003;54688;52.376;16.744;2023-11-21T02:22:39;57;43;
67892;PMS7003;54688;52.376;16.744;2023-11-21T02:25:42;58;43;
67892;PMS7003;54688;52.376;16.744;2023-11-21T02:28:44;55;42;
67892;PMS7003;54688;52.376;16.744;2023-11-21T02:31:46;55;40;
67892;PMS7003;54688;52.376;16.744;2023-11-21T02:34:48;55;43;
67892;PMS7003;54688;52.376;16.744;2023-11-21T02:37:50;55;44;
67892;PMS7003;54688;52.376;16.744;2023-11-21T02:40:52;50;40;
67892;PMS7003;54688;52.376;16.744;2023-11-21T02:43:54;49;40;
67892;PMS7003;54688;52.376;16.744;2023-11-21T02:46:56;53;43;
67892;PMS7003;54688;52.376;16.744;2023-11-21T02:49:58;49;39;
67892;PMS7003;54688;52.376;16.744;2023-11-21T02:53:01;52;43;
67892;PMS7003;54688;52.376;16.744;2023-11-21T02:56:04;54;40;
67892;PMS7003;54688;52.376;16.744;2023-11-21T02:59:05;55;41;
67892;PMS7003;54688;52.376;16.744;2023-11-21T03:02:07;48;38;
67892;PMS7003;54688;52.376;16.744;2023-11-21T03:05:10;51;40;
67892;PMS7003;54688;52.376;16.744;2023-11-21T03:08:12;49;38;
67892;PMS7003;54688;52.376;16.744;2023-11-21T03:11:14;52;41;
67892;PMS7003;54688;52.376;16.744;2023-11-21T03:14:16;51;36;
67892;PMS7003;54688;52.376;16.744;2023-11-21T03:17:18;48;39;
67892;PMS7003;54688;52.376;16.744;2023-11-21T03:20:20;48;37;
67892;PMS7003;54688;52.376;16.744;2023-11-21T03:23:23;52;42;
67892;PMS7003;54688;52.376;16.744;2023-11-21T03:26:25;56;43;
67892;PMS7003;54688;52.376;16.744;2023-11-21T03:29:27;50;39;
67892;PMS7003;54688;52.376;16.744;2023-11-21T03:32:29;52;41;
67892;PMS7003;54688;52.376;16.744;2023-11-21T03:35:31;52;39;
67892;PMS7003;54688;52.376;16.744;2023-11-21T03:38:34;49;38;
67892;PMS7003;54688;52.376;16.744;2023-11-21T03:41:35;55;39;
67892;PMS7003;54688;52.376;16.744;2023-11-21T03:44:38;56;39;
67892;PMS7003;54688;52.376;16.744;2023-11-21T03:47:40;52;40;
67892;PMS7003;54688;52.376;16.744;2023-11-21T03:50:43;46;37;
67892;PMS7003;54688;52.376;16.744;2023-11-21T03:53:46;48;37;
67892;PMS7003;54688;52.376;16.744;2023-11-21T03:56:47;46;36;
67892;PMS7003;54688;52.376;16.744;2023-11-21T03:59:49;42;33;
67892;PMS7003;54688;52.376;16.744;2023-11-21T04:02:51;35;30;
67892;PMS7003;54688;52.376;16.744;2023-11-21T04:05:54;43;32;
67892;PMS7003;54688;52.376;16.744;2023-11-21T04:08:56;29;26;
67892;PMS7003;54688;52.376;16.744;2023-11-21T04:11:58;30;28;
67892;PMS7003;54688;52.376;16.744;2023-11-21T04:15:00;28;23;
67892;PMS7003;54688;52.376;16.744;2023-11-21T04:18:02;30;24;
67892;PMS7003;54688;52.376;16.744;2023-11-21T04:21:05;36;28;
67892;PMS7003;54688;52.376;16.744;2023-11-21T04:24:07;29;25;
67892;PMS7003;54688;52.376;16.744;2023-11-21T04:27:10;23;20;
67892;PMS7003;54688;52.376;16.744;2023-11-21T04:30:13;22;22;
67892;PMS7003;54688;52.376;16.744;2023-11-21T04:33:15;24;21;
67892;PMS7003;54688;52.376;16.744;2023-11-21T04:36:17;26;25;
67892;PMS7003;54688;52.376;16.744;2023-11-21T04:39:20;19;18;
67892;PMS7003;54688;52.376;16.744;2023-11-21T04:42:22;18;15;
67892;PMS7003;54688;52.376;16.744;2023-11-21T04:45:24;21;18;
67892;PMS7003;54688;52.376;16.744;2023-11-21T04:48:26;30;25;
67892;PMS7003;54688;52.376;16.744;2023-11-21T04:51:28;22;20;
67892;PMS7003;54688;52.376;16.744;2023-11-21T04:54:30;28;26;
67892;PMS7003;54688;52.376;16.744;2023-11-21T05:00:33;28;25;
67892;PMS7003;54688;52.376;16.744;2023-11-21T05:03:35;25;25;
67892;PMS7003;54688;52.376;16.744;2023-11-21T05:06:37;27;25;
67892;PMS7003;54688;52.376;16.744;2023-11-21T05:09:41;31;23;
67892;PMS7003;54688;52.376;16.744;2023-11-21T05:12:43;24;22;
67892;PMS7003;54688;52.376;16.744;2023-11-21T05:15:46;19;19;
67892;PMS7003;54688;52.376;16.744;2023-11-21T05:18:48;24;19;
67892;PMS7003;54688;52.376;16.744;2023-11-21T05:21:50;19;19;
67892;PMS7003;54688;52.376;16.744;2023-11-21T05:24:53;25;25;
67892;PMS7003;54688;52.376;16.744;2023-11-21T05:27:55;15;14;
67892;PMS7003;54688;52.376;16.744;2023-11-21T05:30:58;25;18;
67892;PMS7003;54688;52.376;16.744;2023-11-21T05:37:00;18;16;
67892;PMS7003;54688;52.376;16.744;2023-11-21T05:40:03;17;14;
67892;PMS7003;54688;52.376;16.744;2023-11-21T05:43:06;18;15;
67892;PMS7003;54688;52.376;16.744;2023-11-21T05:46:08;15;13;
67892;PMS7003;54688;52.376;16.744;2023-11-21T05:49:10;18;17;
67892;PMS7003;54688;52.376;16.744;2023-11-21T05:52:12;15;13;
67892;PMS7003;54688;52.376;16.744;2023-11-21T05:55:15;18;18;
67892;PMS7003;54688;52.376;16.744;2023-11-21T05:58:17;18;17;
67892;PMS7003;54688;52.376;16.744;2023-11-21T06:01:20;16;15;
67892;PMS7003;54688;52.376;16.744;2023-11-21T06:04:21;20;14;
67892;PMS7003;54688;52.376;16.744;2023-11-21T06:07:24;15;12;
67892;PMS7003;54688;52.376;16.744;2023-11-21T06:13:25;14;13;
67892;PMS7003;54688;52.376;16.744;2023-11-21T06:16:27;14;14;
67892;PMS7003;54688;52.376;16.744;2023-11-21T06:19:29;14;13;
67892;PMS7003;54688;52.376;16.744;2023-11-21T06:22:31;18;15;
67892;PMS7003;54688;52.376;16.744;2023-11-21T06:25:33;16;16;
67892;PMS7003;54688;52.376;16.744;2023-11-21T06:28:36;19;15;
67892;PMS7003;54688;52.376;16.744;2023-11-21T06:31:38;14;13;
67892;PMS7003;54688;52.376;16.744;2023-11-21T06:34:40;13;13;
67892;PMS7003;54688;52.376;16.744;2023-11-21T06:37:42;16;15;
67892;PMS7003;54688;52.376;16.744;2023-11-21T06:40:44;18;15;
67892;PMS7003;54688;52.376;16.744;2023-11-21T06:43:47;19;19;
67892;PMS7003;54688;52.376;16.744;2023-11-21T06:46:49;17;15;
67892;PMS7003;54688;52.376;16.744;2023-11-21T06:49:52;25;20;
67892;PMS7003;54688;52.376;16.744;2023-11-21T06:52:54;18;17;
67892;PMS7003;54688;52.376;16.744;2023-11-21T06:55:56;24;21;
67892;PMS7003;54688;52.376;16.744;2023-11-21T06:58:58;22;21;
67892;PMS7003;54688;52.376;16.744;2023-11-21T07:02:00;26;22;
67892;PMS7003;54688;52.376;16.744;2023-11-21T07:05:03;22;21;
67892;PMS7003;54688;52.376;16.744;2023-11-21T07:08:05;27;21;
67892;PMS7003;54688;52.376;16.744;2023-11-21T07:11:07;19;19;
67892;PMS7003;54688;52.376;16.744;2023-11-21T07:14:09;23;19;
67892;PMS7003;54688;52.376;16.744;2023-11-21T07:17:12;24;21;
67892;PMS7003;54688;52.376;16.744;2023-11-21T07:20:13;15;15;
67892;PMS7003;54688;52.376;16.744;2023-11-21T07:23:16;24;19;
67892;PMS7003;54688;52.376;16.744;2023-11-21T07:26:18;19;16;
67892;PMS7003;54688;52.376;16.744;2023-11-21T07:29:20;22;19;
67892;PMS7003;54688;52.376;16.744;2023-11-21T07:32:22;23;19;
67892;PMS7003;54688;52.376;16.744;2023-11-21T07:35:24;19;18;
67892;PMS7003;54688;52.376;16.744;2023-11-21T07:38:26;20;17;
67892;PMS7003;54688;52.376;16.744;2023-11-21T07:41:28;23;21;
67892;PMS7003;54688;52.376;16.744;2023-11-21T07:44:30;21;21;
67892;PMS7003;54688;52.376;16.744;2023-11-21T07:47:32;19;19;
67892;PMS7003;54688;52.376;16.744;2023-11-21T07:50:35;22;19;
67892;PMS7003;54688;52.376;16.744;2023-11-21T07:53:45;20;17;
67892;PMS7003;54688;52.376;16.744;2023-11-21T07:59:47;19;17;
67892;PMS7003;54688;52.376;16.744;2023-11-21T08:02:49;20;18;
67892;PMS7003;54688;52.376;16.744;2023-11-21T08:05:52;19;19;
67892;PMS7003;54688;52.376;16.744;2023-11-21T08:08:54;22;18;
67892;PMS7003;54688;52.376;16.744;2023-11-21T08:11:56;19;19;
67892;PMS7003;54688;52.376;16.744;2023-11-21T08:14:59;16;14;
67892;PMS7003;54688;52.376;16.744;2023-11-21T08:18:01;18;15;
67892;PMS7003;54688;52.376;16.744;2023-11-21T08:21:03;20;17;
67892;PMS7003;54688;52.376;16.744;2023-11-21T08:24:06;17;14;
67892;PMS7003;54688;52.376;16.744;2023-11-21T08:27:09;14;12;
67892;PMS7003;54688;52.376;16.744;2023-11-21T08:30:11;17;16;
67892;PMS7003;54688;52.376;16.744;2023-11-21T08:33:13;19;17;
67892;PMS7003;54688;52.376;16.744;2023-11-21T08:36:16;19;16;
67892;PMS7003;54688;52.376;16.744;2023-11-21T08:39:18;20;17;
67892;PMS7003;54688;52.376;16.744;2023-11-21T08:42:21;14;13;
67892;PMS7003;54688;52.376;16.744;2023-11-21T08:45:24;14;11;
67892;PMS7003;54688;52.376;16.744;2023-11-21T08:48:26;14;13;
67892;PMS7003;54688;52.376;16.744;2023-11-21T08:51:29;16;12;
67892;PMS7003;54688;52.376;16.744;2023-11-21T08:54:31;14;12;
67892;PMS7003;54688;52.376;16.744;2023-11-21T08:57:33;15;13;
67892;PMS7003;54688;52.376;16.744;2023-11-21T09:00:36;17;15;
67892;PMS7003;54688;52.376;16.744;2023-11-21T09:03:38;10;10;
67892;PMS7003;54688;52.376;16.744;2023-11-21T09:06:41;11;11;
67892;PMS7003;54688;52.376;16.744;2023-11-21T09:09:43;15;15;
67892;PMS7003;54688;52.376;16.744;2023-11-21T09:12:45;19;16;
67892;PMS7003;54688;52.376;16.744;2023-11-21T09:15:49;16;12;
67892;PMS7003;54688;52.376;16.744;2023-11-21T09:18:51;15;15;
67892;PMS7003;54688;52.376;16.744;2023-11-21T09:21:53;19;19;
67892;PMS7003;54688;52.376;16.744;2023-11-21T09:24:56;25;21;
67892;PMS7003;54688;52.376;16.744;2023-11-21T09:28:00;20;19;
67892;PMS7003;54688;52.376;16.744;2023-11-21T09:31:02;23;20;
67892;PMS7003;54688;52.376;16.744;2023-11-21T09:34:05;22;22;
67892;PMS7003;54688;52.376;16.744;2023-11-21T09:37:07;21;19;
67892;PMS7003;54688;52.376;16.744;2023-11-21T09:40:11;26;23;
67892;PMS7003;54688;52.376;16.744;2023-11-21T09:43:16;25;22;
67892;PMS7003;54688;52.376;16.744;2023-11-21T09:46:20;28;25;
67892;PMS7003;54688;52.376;16.744;2023-11-21T09:49:23;26;23;
67892;PMS7003;54688;52.376;16.744;2023-11-21T09:52:26;34;27;
67892;PMS7003;54688;52.376;16.744;2023-11-21T09:55:28;24;23;
67892;PMS7003;54688;52.376;16.744;2023-11-21T09:58:32;29;25;
67892;PMS7003;54688;52.376;16.744;2023-11-21T10:01:36;31;28;
67892;PMS7003;54688;52.376;16.744;2023-11-21T10:04:38;34;31;
67892;PMS7003;54688;52.376;16.744;2023-11-21T10:07:42;31;27;
67892;PMS7003;54688;52.376;16.744;2023-11-21T10:10:46;45;34;
67892;PMS7003;54688;52.376;16.744;2023-11-21T10:13:52;28;27;
67892;PMS7003;54688;52.376;16.744;2023-11-21T10:16:55;33;30;
67892;PMS7003;54688;52.376;16.744;2023-11-21T10:19:58;33;30;
67892;PMS7003;54688;52.376;16.744;2023-11-21T10:23:00;32;28;
67892;PMS7003;54688;52.376;16.744;2023-11-21T10:26:04;40;34;
67892;PMS7003;54688;52.376;16.744;2023-11-21T10:29:06;39;32;
67892;PMS7003;54688;52.376;16.744;2023-11-21T10:32:09;31;28;
67892;PMS7003;54688;52.376;16.744;2023-11-21T10:35:11;39;29;
67892;PMS7003;54688;52.376;16.744;2023-11-21T10:38:14;37;32;
67892;PMS7003;54688;52.376;16.744;2023-11-21T10:41:17;40;33;
67892;PMS7003;54688;52.376;16.744;2023-11-21T10:44:20;34;30;
67892;PMS7003;54688;52.376;16.744;2023-11-21T10:47:23;39;32;
67892;PMS7003;54688;52.376;16.744;2023-11-21T10:50:26;32;28;
67892;PMS7003;54688;52.376;16.744;2023-11-21T10:53:28;35;27;
67892;PMS7003;54688;52.376;16.744;2023-11-21T10:56:31;36;31;
67892;PMS7003;54688;52.376;16.744;2023-11-21T10:59:33;37;30;
67892;PMS7003;54688;52.376;16.744;2023-11-21T11:02:35;34;30;
67892;PMS7003;54688;52.376;16.744;2023-11-21T11:08:37;33;30;
67892;PMS7003;54688;52.376;16.744;2023-11-21T11:11:39;35;30;
67892;PMS7003;54688;52.376;16.744;2023-11-21T11:14:42;33;30;
67892;PMS7003;54688;52.376;16.744;2023-11-21T11:17:45;31;29;
67892;PMS7003;54688;52.376;16.744;2023-11-21T11:20:47;40;33;
67892;PMS7003;54688;52.376;16.744;2023-11-21T11:26:56;38;33;
67892;PMS7003;54688;52.376;16.744;2023-11-21T11:30:10;36;32;
67892;PMS7003;54688;52.376;16.744;2023-11-21T11:33:23;41;33;
67892;PMS7003;54688;52.376;16.744;2023-11-21T11:36:30;35;32;
67892;PMS7003;54688;52.376;16.744;2023-11-21T11:39:36;34;30;
67892;PMS7003;54688;52.376;16.744;2023-11-21T11:42:38;41;34;
67892;PMS7003;54688;52.376;16.744;2023-11-21T11:45:40;37;31;
67892;PMS7003;54688;52.376;16.744;2023-11-21T11:48:42;31;28;
67892;PMS7003;54688;52.376;16.744;2023-11-21T11:51:44;37;32;
67892;PMS7003;54688;52.376;16.744;2023-11-21T11:57:48;35;28;
67892;PMS7003;54688;52.376;16.744;2023-11-21T12:00:51;33;30;
67892;PMS7003;54688;52.376;16.744;2023-11-21T12:04:27;37;31;
67892;PMS7003;54688;52.376;16.744;2023-11-21T12:07:41;45;33;
67892;PMS7003;54688;52.376;16.744;2023-11-21T12:10:44;46;38;
67892;PMS7003;54688;52.376;16.744;2023-11-21T12:13:46;47;35;
67892;PMS7003;54688;52.376;16.744;2023-11-21T12:16:50;51;39;
67892;PMS7003;54688;52.376;16.744;2023-11-21T12:19:52;46;37;
67892;PMS7003;54688;52.376;16.744;2023-11-21T12:22:55;50;41;
67892;PMS7003;54688;52.376;16.744;2023-11-21T12:25:58;42;34;
67892;PMS7003;54688;52.376;16.744;2023-11-21T12:29:00;50;39;
67892;PMS7003;54688;52.376;16.744;2023-11-21T12:32:03;51;40;
67892;PMS7003;54688;52.376;16.744;2023-11-21T12:35:06;46;35;
67892;PMS7003;54688;52.376;16.744;2023-11-21T12:38:08;52;44;
67892;PMS7003;54688;52.376;16.744;2023-11-21T12:41:10;41;35;
67892;PMS7003;54688;52.376;16.744;2023-11-21T12:44:13;49;36;
67892;PMS7003;54688;52.376;16.744;2023-11-21T12:47:17;45;38;
67892;PMS7003;54688;52.376;16.744;2023-11-21T12:50:19;48;38;
67892;PMS7003;54688;52.376;16.744;2023-11-21T12:53:22;44;35;
67892;PMS7003;54688;52.376;16.744;2023-11-21T12:56:24;42;35;
67892;PMS7003;54688;52.376;16.744;2023-11-21T12:59:26;46;36;
67892;PMS7003;54688;52.376;16.744;2023-11-21T13:02:30;46;38;
67892;PMS7003;54688;52.376;16.744;2023-11-21T13:05:33;48;38;
67892;PMS7003;54688;52.376;16.744;2023-11-21T13:08:36;46;34;
67892;PMS7003;54688;52.376;16.744;2023-11-21T13:11:38;46;37;
67892;PMS7003;54688;52.376;16.744;2023-11-21T13:14:40;42;33;
67892;PMS7003;54688;52.376;16.744;2023-11-21T13:17:43;50;37;
67892;PMS7003;54688;52.376;16.744;2023-11-21T13:20:47;50;39;
67892;PMS7003;54688;52.376;16.744;2023-11-21T13:23:49;46;35;
67892;PMS7003;54688;52.376;16.744;2023-11-21T13:26:51;38;32;
67892;PMS7003;54688;52.376;16.744;2023-11-21T13:29:53;40;33;
67892;PMS7003;54688;52.376;16.744;2023-11-21T13:32:56;46;35;
67892;PMS7003;54688;52.376;16.744;2023-11-21T13:35:58;39;33;
67892;PMS7003;54688;52.376;16.744;2023-11-21T13:39:01;39;33;
67892;PMS7003;54688;52.376;16.744;2023-11-21T13:42:03;51;35;
67892;PMS7003;54688;52.376;16.744;2023-11-21T13:48:06;44;36;
67892;PMS7003;54688;52.376;16.744;2023-11-21T13:51:09;42;32;
67892;PMS7003;54688;52.376;16.744;2023-11-21T13:54:11;42;35;
67892;PMS7003;54688;52.376;16.744;2023-11-21T13:57:14;43;35;
67892;PMS7003;54688;52.376;16.744;2023-11-21T14:00:16;46;35;
67892;PMS7003;54688;52.376;16.744;2023-11-21T14:03:19;51;39;
67892;PMS7003;54688;52.376;16.744;2023-11-21T14:06:21;46;37;
67892;PMS7003;54688;52.376;16.744;2023-11-21T14:12:23;51;39;
67892;PMS7003;54688;52.376;16.744;2023-11-21T14:18:26;45;37;
67892;PMS7003;54688;52.376;16.744;2023-11-21T14:21:29;50;40;
67892;PMS7003;54688;52.376;16.744;2023-11-21T14:24:31;45;36;
67892;PMS7003;54688;52.376;16.744;2023-11-21T14:27:33;39;33;
67892;PMS7003;54688;52.376;16.744;2023-11-21T14:30:36;41;32;
67892;PMS7003;54688;52.376;16.744;2023-11-21T14:33:38;44;36;
67892;PMS7003;54688;52.376;16.744;2023-11-21T14:36:40;40;34;
67892;PMS7003;54688;52.376;16.744;2023-11-21T14:39:43;48;40;
67892;PMS7003;54688;52.376;16.744;2023-11-21T14:42:45;45;37;
67892;PMS7003;54688;52.376;16.744;2023-11-21T14:45:47;43;36;
67892;PMS7003;54688;52.376;16.744;2023-11-21T14:48:50;47;38;
67892;PMS7003;54688;52.376;16.744;2023-11-21T14:51:53;50;38;
67892;PMS7003;54688;52.376;16.744;2023-11-21T14:57:56;39;34;
67892;PMS7003;54688;52.376;16.744;2023-11-21T15:00:59;42;36;
67892;PMS7003;54688;52.376;16.744;2023-11-21T15:04:01;50;38;
67892;PMS7003;54688;52.376;16.744;2023-11-21T15:07:04;50;38;
67892;PMS7003;54688;52.376;16.744;2023-11-21T15:13:07;50;40;
67892;PMS7003;54688;52.376;16.744;2023-11-21T15:16:10;47;37;
67892;PMS7003;54688;52.376;16.744;2023-11-21T15:19:12;38;33;
67892;PMS7003;54688;52.376;16.744;2023-11-21T15:22:14;45;38;
67892;PMS7003;54688;52.376;16.744;2023-11-21T15:25:17;42;33;
67892;PMS7003;54688;52.376;16.744;2023-11-21T15:28:19;38;35;
67892;PMS7003;54688;52.376;16.744;2023-11-21T15:31:22;43;32;
67892;PMS7003;54688;52.376;16.744;2023-11-21T15:34:24;45;35;
67892;PMS7003;54688;52.376;16.744;2023-11-21T15:37:26;43;36;
67892;PMS7003;54688;52.376;16.744;2023-11-21T15:40:29;44;33;
67892;PMS7003;54688;52.376;16.744;2023-11-21T15:43:31;48;38;
67892;PMS7003;54688;52.376;16.744;2023-11-21T15:46:34;44;36;
67892;PMS7003;54688;52.376;16.744;2023-11-21T15:49:36;46;38;
67892;PMS7003;54688;52.376;16.744;2023-11-21T15:52:38;51;39;
67892;PMS7003;54688;52.376;16.744;2023-11-21T15:55:40;46;35;
67892;PMS7003;54688;52.376;16.744;2023-11-21T15:58:42;51;39;
67892;PMS7003;54688;52.376;16.744;2023-11-21T16:01:44;48;39;
67892;PMS7003;54688;52.376;16.744;2023-11-21T16:04:47;49;39;
67892;PMS7003;54688;52.376;16.744;2023-11-21T16:07:50;45;37;
67892;PMS7003;54688;52.376;16.744;2023-11-21T16:10:52;44;32;
67892;PMS7003;54688;52.376;16.744;2023-11-21T16:13:54;41;33;
67892;PMS7003;54688;52.376;16.744;2023-11-21T16:16:56;45;37;
67892;PMS7003;54688;52.376;16.744;2023-11-21T16:19:59;43;37;
67892;PMS7003;54688;52.376;16.744;2023-11-21T16:23:02;46;36;
67892;PMS7003;54688;52.376;16.744;2023-11-21T16:26:04;39;31;
67892;PMS7003;54688;52.376;16.744;2023-11-21T16:29:06;48;37;
67892;PMS7003;54688;52.376;16.744;2023-11-21T16:32:12;54;40;
67892;PMS7003;54688;52.376;16.744;2023-11-21T16:35:14;52;40;
67892;PMS7003;54688;52.376;16.744;2023-11-21T16:38:17;47;33;
67892;PMS7003;54688;52.376;16.744;2023-11-21T16:41:19;47;39;
67892;PMS7003;54688;52.376;16.744;2023-11-21T16:44:21;41;34;
67892;PMS7003;54688;52.376;16.744;2023-11-21T16:47:23;48;40;
67892;PMS7003;54688;52.376;16.744;2023-11-21T16:50:25;46;39;
67892;PMS7003;54688;52.376;16.744;2023-11-21T16:53:27;46;37;
67892;PMS7003;54688;52.376;16.744;2023-11-21T16:56:30;47;34;
67892;PMS7003;54688;52.376;16.744;2023-11-21T16:59:32;48;37;
67892;PMS7003;54688;52.376;16.744;2023-11-21T17:02:34;48;39;
67892;PMS7003;54688;52.376;16.744;2023-11-21T17:05:37;52;41;
67892;PMS7003;54688;52.376;16.744;2023-11-21T17:08:39;46;38;
67892;PMS7003;54688;52.376;16.744;2023-11-21T17:11:41;46;37;
67892;PMS7003;54688;52.376;16.744;2023-11-21T17:14:44;48;37;
67892;PMS7003;54688;52.376;16.744;2023-11-21T17:17:46;44;36;
67892;PMS7003;54688;52.376;16.744;2023-11-21T17:20:48;43;37;
67892;PMS7003;54688;52.376;16.744;2023-11-21T17:23:50;47;40;
67892;PMS7003;54688;52.376;16.744;2023-11-21T17:26:52;41;35;
67892;PMS7003;54688;52.376;16.744;2023-11-21T17:29:55;50;37;
67892;PMS7003;54688;52.376;16.744;2023-11-21T17:32:57;42;35;
67892;PMS7003;54688;52.376;16.744;2023-11-21T17:35:59;38;35;
67892;PMS7003;54688;52.376;16.744;2023-11-21T17:39:02;44;37;
67892;PMS7003;54688;52.376;16.744;2023-11-21T17:42:04;43;34;
67892;PMS7003;54688;52.376;16.744;2023-11-21T17:45:07;36;33;
67892;PMS7003;54688;52.376;16.744;2023-11-21T17:48:10;46;38;
67892;PMS7003;54688;52.376;16.744;2023-11-21T17:51:12;43;36;
67892;PMS7003;54688;52.376;16.744;2023-11-21T17:54:14;39;36;
67892;PMS7003;54688;52.376;16.744;2023-11-21T17:57:16;43;37;
67892;PMS7003;54688;52.376;16.744;2023-11-21T18:00:19;43;34;
67892;PMS7003;54688;52.376;16.744;2023-11-21T18:03:21;38;33;
67892;PMS7003;54688;52.376;16.744;2023-11-21T18:06:24;45;36;
67892;PMS7003;54688;52.376;16.744;2023-11-21T18:12:27;39;33;
67892;PMS7003;54688;52.376;16.744;2023-11-21T18:15:29;43;36;
67892;PMS7003;54688;52.376;16.744;2023-11-21T18:21:30;36;33;
67892;PMS7003;54688;52.376;16.744;2023-11-21T18:24:33;43;36;
67892;PMS7003;54688;52.376;16.744;2023-11-21T18:27:37;39;33;
67892;PMS7003;54688;52.376;16.744;2023-11-21T18:30:39;42;33;
67892;PMS7003;54688;52.376;16.744;2023-11-21T18:33:42;42;34;
67892;PMS7003;54688;52.376;16.744;2023-11-21T18:36:44;37;34;
67892;PMS7003;54688;52.376;16.744;2023-11-21T18:39:47;40;34;
67892;PMS7003;54688;52.376;16.744;2023-11-21T18:42:49;38;33;
67892;PMS7003;54688;52.376;16.744;2023-11-21T18:45:51;39;34;
67892;PMS7003;54688;52.376;16.744;2023-11-21T18:48:53;49;36;
67892;PMS7003;54688;52.376;16.744;2023-11-21T18:51:56;39;34;
67892;PMS7003;54688;52.376;16.744;2023-11-21T18:54:58;34;31;
67892;PMS7003;54688;52.376;16.744;2023-11-21T18:58:00;34;30;
67892;PMS7003;54688;52.376;16.744;2023-11-21T19:01:03;36;30;
67892;PMS7003;54688;52.376;16.744;2023-11-21T19:04:05;34;28;
67892;PMS7003;54688;52.376;16.744;2023-11-21T19:07:08;37;31;
67892;PMS7003;54688;52.376;16.744;2023-11-21T19:10:10;31;25;
67892;PMS7003;54688;52.376;16.744;2023-11-21T19:13:13;39;33;
67892;PMS7003;54688;52.376;16.744;2023-11-21T19:16:15;35;30;
67892;PMS7003;54688;52.376;16.744;2023-11-21T19:19:17;28;25;
67892;PMS7003;54688;52.376;16.744;2023-11-21T19:22:19;39;33;
67892;PMS7003;54688;52.376;16.744;2023-11-21T19:25:22;32;30;
67892;PMS7003;54688;52.376;16.744;2023-11-21T19:28:24;35;32;
67892;PMS7003;54688;52.376;16.744;2023-11-21T19:31:26;34;32;
67892;PMS7003;54688;52.376;16.744;2023-11-21T19:34:28;25;24;
67892;PMS7003;54688;52.376;16.744;2023-11-21T19:37:30;32;29;
67892;PMS7003;54688;52.376;16.744;2023-11-21T19:40:32;33;27;
67892;PMS7003;54688;52.376;16.744;2023-11-21T19:43:35;30;25;
67892;PMS7003;54688;52.376;16.744;2023-11-21T19:52:35;34;27;
67892;PMS7003;54688;52.376;16.744;2023-11-21T19:58:37;26;22;
67892;PMS7003;54688;52.376;16.744;2023-11-21T20:01:39;30;26;
67892;PMS7003;54688;52.376;16.744;2023-11-21T20:04:41;27;27;
67892;PMS7003;54688;52.376;16.744;2023-11-21T20:07:44;31;26;
67892;PMS7003;54688;52.376;16.744;2023-11-21T20:10:46;28;23;
67892;PMS7003;54688;52.376;16.744;2023-11-21T20:13:49;26;22;
67892;PMS7003;54688;52.376;16.744;2023-11-21T20:16:51;21;19;
67892;PMS7003;54688;52.376;16.744;2023-11-21T20:19:53;22;21;
67892;PMS7003;54688;52.376;16.744;2023-11-21T20:22:56;33;27;
67892;PMS7003;54688;52.376;16.744;2023-11-21T20:25:59;25;23;
67892;PMS7003;54688;52.376;16.744;2023-11-21T20:29:01;25;21;
67892;PMS7003;54688;52.376;16.744;2023-11-21T20:32:04;24;20;
67892;PMS7003;54688;52.376;16.744;2023-11-21T20:35:08;26;21;
67892;PMS7003;54688;52.376;16.744;2023-11-21T20:38:10;22;19;
67892;PMS7003;54688;52.376;16.744;2023-11-21T20:41:13;27;25;
67892;PMS7003;54688;52.376;16.744;2023-11-21T20:44:15;29;26;
67892;PMS7003;54688;52.376;16.744;2023-11-21T20:47:17;21;21;